sensor_id;sensor_type;location;lat;lon;timestamp;P1;durP1;ratioP1;P2;durP2;ratioP2
20621;SDS011;10470;42.670;23.354;2023-05-10T00:01:58;9.20;;;7.57;;
20621;SDS011;10470;42.670;23.354;2023-05-10T00:04:43;9.93;;;7.70;;
20621;SDS011;10470;42.670;23.354;2023-05-10T00:07:29;9.10;;;7.57;;
20621;SDS011;10470;42.670;23.354;2023-05-10T00:10:14;8.10;;;7.17;;
20621;SDS011;10470;42.670;23.354;2023-05-10T00:13:00;8.80;;;7.70;;
20621;SDS011;10470;42.670;23.354;2023-05-10T00:15:45;10.80;;;8.20;;
20621;SDS011;10470;42.670;23.354;2023-05-10T00:18:31;10.53;;;8.40;;
20621;SDS011;10470;42.670;23.354;2023-05-10T00:21:16;12.13;;;9.43;;
20621;SDS011;10470;42.670;23.354;2023-05-10T00:23:57;10.60;;;8.57;;
20621;SDS011;10470;42.670;23.354;2023-05-10T00:26:42;10.80;;;8.97;;
20621;SDS011;10470;42.670;23.354;2023-05-10T00:29:28;10.57;;;9.07;;
20621;SDS011;10470;42.670;23.354;2023-05-10T00:32:13;10.83;;;9.30;;
20621;SDS011;10470;42.670;23.354;2023-05-10T00:34:59;10.53;;;9.43;;
20621;SDS011;10470;42.670;23.354;2023-05-10T00:37:44;11.83;;;9.70;;
20621;SDS011;10470;42.670;23.354;2023-05-10T00:40:30;11.00;;;9.83;;
20621;SDS011;10470;42.670;23.354;2023-05-10T00:43:15;11.17;;;9.17;;
20621;SDS011;10470;42.670;23.354;2023-05-10T00:45:50;10.80;;;9.70;;
20621;SDS011;10470;42.670;23.354;2023-05-10T00:48:36;10.30;;;9.20;;
20621;SDS011;10470;42.670;23.354;2023-05-10T00:51:21;11.47;;;10.27;;
20621;SDS011;10470;42.670;23.354;2023-05-10T00:54:07;12.07;;;9.90;;
20621;SDS011;10470;42.670;23.354;2023-05-10T00:56:52;12.77;;;10.43;;
20621;SDS011;10470;42.670;23.354;2023-05-10T00:59:38;11.83;;;10.17;;
20621;SDS011;10470;42.670;23.354;2023-05-10T01:02:23;12.90;;;10.20;;
20621;SDS011;10470;42.670;23.354;2023-05-10T01:05:09;13.23;;;10.53;;
20621;SDS011;10470;42.670;23.354;2023-05-10T01:07:44;12.80;;;10.43;;
20621;SDS011;10470;42.670;23.354;2023-05-10T01:10:30;12.70;;;10.10;;
20621;SDS011;10470;42.670;23.354;2023-05-10T01:13:24;12.67;;;10.90;;
20621;SDS011;10470;42.670;23.354;2023-05-10T01:16:12;11.10;;;10.00;;
20621;SDS011;10470;42.670;23.354;2023-05-10T01:18:58;11.43;;;10.13;;
20621;SDS011;10470;42.670;23.354;2023-05-10T01:38:10;9.47;;;8.47;;
20621;SDS011;10470;42.670;23.354;2023-05-10T01:49:56;8.57;;;7.67;;
20621;SDS011;10470;42.670;23.354;2023-05-10T01:52:51;8.63;;;7.83;;
20621;SDS011;10470;42.670;23.354;2023-05-10T01:55:42;9.93;;;7.90;;
20621;SDS011;10470;42.670;23.354;2023-05-10T01:58:33;8.33;;;7.53;;
20621;SDS011;10470;42.670;23.354;2023-05-10T02:01:21;7.87;;;7.17;;
20621;SDS011;10470;42.670;23.354;2023-05-10T02:04:07;8.30;;;7.50;;
20621;SDS011;10470;42.670;23.354;2023-05-10T02:06:55;7.43;;;6.73;;
20621;SDS011;10470;42.670;23.354;2023-05-10T02:09:42;7.70;;;6.27;;
20621;SDS011;10470;42.670;23.354;2023-05-10T02:12:34;6.03;;;5.53;;
20621;SDS011;10470;42.670;23.354;2023-05-10T02:15:22;8.07;;;5.70;;
20621;SDS011;10470;42.670;23.354;2023-05-10T02:18:09;6.87;;;6.17;;
20621;SDS011;10470;42.670;23.354;2023-05-10T02:20:57;7.30;;;6.20;;
20621;SDS011;10470;42.670;23.354;2023-05-10T02:23:44;6.73;;;6.10;;
20621;SDS011;10470;42.670;23.354;2023-05-10T02:26:30;8.37;;;6.43;;
20621;SDS011;10470;42.670;23.354;2023-05-10T02:29:18;6.47;;;5.70;;
20621;SDS011;10470;42.670;23.354;2023-05-10T02:32:04;6.47;;;5.87;;
20621;SDS011;10470;42.670;23.354;2023-05-10T02:34:51;6.63;;;5.90;;
20621;SDS011;10470;42.670;23.354;2023-05-10T02:37:31;6.57;;;5.97;;
20621;SDS011;10470;42.670;23.354;2023-05-10T02:40:18;6.27;;;5.60;;
20621;SDS011;10470;42.670;23.354;2023-05-10T02:43:06;7.20;;;5.37;;
20621;SDS011;10470;42.670;23.354;2023-05-10T02:45:57;6.03;;;5.23;;
20621;SDS011;10470;42.670;23.354;2023-05-10T02:48:42;7.00;;;5.07;;
20621;SDS011;10470;42.670;23.354;2023-05-10T02:51:28;5.93;;;5.27;;
20621;SDS011;10470;42.670;23.354;2023-05-10T02:54:20;7.77;;;5.57;;
20621;SDS011;10470;42.670;23.354;2023-05-10T02:57:09;11.77;;;5.97;;
20621;SDS011;10470;42.670;23.354;2023-05-10T03:00:00;7.03;;;5.30;;
20621;SDS011;10470;42.670;23.354;2023-05-10T03:02:48;6.37;;;4.97;;
20621;SDS011;10470;42.670;23.354;2023-05-10T03:05:33;6.37;;;5.33;;
20621;SDS011;10470;42.670;23.354;2023-05-10T03:08:18;6.73;;;5.30;;
20621;SDS011;10470;42.670;23.354;2023-05-10T03:10:59;7.50;;;5.33;;
20621;SDS011;10470;42.670;23.354;2023-05-10T03:16:46;8.20;;;5.83;;
20621;SDS011;10470;42.670;23.354;2023-05-10T03:19:47;6.70;;;6.00;;
20621;SDS011;10470;42.670;23.354;2023-05-10T03:22:45;9.70;;;5.67;;
20621;SDS011;10470;42.670;23.354;2023-05-10T03:25:32;6.73;;;5.80;;
20621;SDS011;10470;42.670;23.354;2023-05-10T03:28:18;6.93;;;6.20;;
20621;SDS011;10470;42.670;23.354;2023-05-10T03:31:06;6.87;;;6.10;;
20621;SDS011;10470;42.670;23.354;2023-05-10T03:33:52;9.57;;;5.70;;
20621;SDS011;10470;42.670;23.354;2023-05-10T03:36:38;8.80;;;6.43;;
20621;SDS011;10470;42.670;23.354;2023-05-10T03:39:23;7.40;;;6.27;;
20621;SDS011;10470;42.670;23.354;2023-05-10T03:42:09;8.00;;;6.43;;
20621;SDS011;10470;42.670;23.354;2023-05-10T03:44:56;7.70;;;6.60;;
20621;SDS011;10470;42.670;23.354;2023-05-10T03:47:42;9.17;;;6.53;;
20621;SDS011;10470;42.670;23.354;2023-05-10T03:50:27;8.03;;;6.10;;
20621;SDS011;10470;42.670;23.354;2023-05-10T03:53:13;7.23;;;5.80;;
20621;SDS011;10470;42.670;23.354;2023-05-10T03:55:58;9.87;;;6.03;;
20621;SDS011;10470;42.670;23.354;2023-05-10T03:58:43;8.63;;;6.27;;
20621;SDS011;10470;42.670;23.354;2023-05-10T04:01:29;7.50;;;5.80;;
20621;SDS011;10470;42.670;23.354;2023-05-10T04:04:15;7.13;;;5.50;;
20621;SDS011;10470;42.670;23.354;2023-05-10T04:06:55;6.50;;;5.77;;
20621;SDS011;10470;42.670;23.354;2023-05-10T04:09:41;7.27;;;6.23;;
20621;SDS011;10470;42.670;23.354;2023-05-10T04:12:26;10.70;;;7.50;;
20621;SDS011;10470;42.670;23.354;2023-05-10T04:15:11;9.87;;;8.20;;
20621;SDS011;10470;42.670;23.354;2023-05-10T04:17:57;11.33;;;7.50;;
20621;SDS011;10470;42.670;23.354;2023-05-10T04:20:42;9.27;;;7.27;;
20621;SDS011;10470;42.670;23.354;2023-05-10T04:23:28;10.07;;;6.73;;
20621;SDS011;10470;42.670;23.354;2023-05-10T04:26:13;8.60;;;6.37;;
20621;SDS011;10470;42.670;23.354;2023-05-10T04:28:58;7.73;;;5.93;;
20621;SDS011;10470;42.670;23.354;2023-05-10T04:31:44;9.27;;;6.97;;
20621;SDS011;10470;42.670;23.354;2023-05-10T04:34:30;8.77;;;6.70;;
20621;SDS011;10470;42.670;23.354;2023-05-10T04:37:15;9.30;;;7.00;;
20621;SDS011;10470;42.670;23.354;2023-05-10T04:40:01;9.80;;;6.37;;
20621;SDS011;10470;42.670;23.354;2023-05-10T04:42:47;7.80;;;6.60;;
20621;SDS011;10470;42.670;23.354;2023-05-10T04:45:28;10.17;;;6.47;;
20621;SDS011;10470;42.670;23.354;2023-05-10T04:48:14;13.33;;;7.37;;
20621;SDS011;10470;42.670;23.354;2023-05-10T04:50:59;9.87;;;6.63;;
20621;SDS011;10470;42.670;23.354;2023-05-10T04:53:44;7.77;;;6.43;;
20621;SDS011;10470;42.670;23.354;2023-05-10T04:56:30;11.30;;;8.97;;
20621;SDS011;10470;42.670;23.354;2023-05-10T04:59:03;8.70;;;7.00;;
20621;SDS011;10470;42.670;23.354;2023-05-10T05:01:48;9.00;;;6.63;;
20621;SDS011;10470;42.670;23.354;2023-05-10T05:04:34;11.20;;;7.97;;
20621;SDS011;10470;42.670;23.354;2023-05-10T05:07:19;10.50;;;7.10;;
20621;SDS011;10470;42.670;23.354;2023-05-10T05:10:05;10.67;;;7.03;;
20621;SDS011;10470;42.670;23.354;2023-05-10T05:12:37;8.67;;;7.33;;
20621;SDS011;10470;42.670;23.354;2023-05-10T05:15:22;11.13;;;8.20;;
20621;SDS011;10470;42.670;23.354;2023-05-10T05:18:08;10.20;;;7.60;;
20621;SDS011;10470;42.670;23.354;2023-05-10T05:20:53;9.60;;;7.77;;
20621;SDS011;10470;42.670;23.354;2023-05-10T05:23:39;9.50;;;7.57;;
20621;SDS011;10470;42.670;23.354;2023-05-10T05:26:13;9.60;;;7.37;;
20621;SDS011;10470;42.670;23.354;2023-05-10T05:28:59;10.33;;;7.80;;
20621;SDS011;10470;42.670;23.354;2023-05-10T05:31:45;8.73;;;7.23;;
20621;SDS011;10470;42.670;23.354;2023-05-10T05:34:30;9.77;;;7.60;;
20621;SDS011;10470;42.670;23.354;2023-05-10T05:37:16;10.20;;;7.83;;
20621;SDS011;10470;42.670;23.354;2023-05-10T05:40:03;10.87;;;8.53;;
20621;SDS011;10470;42.670;23.354;2023-05-10T05:42:49;11.23;;;8.37;;
20621;SDS011;10470;42.670;23.354;2023-05-10T05:45:34;11.13;;;8.27;;
20621;SDS011;10470;42.670;23.354;2023-05-10T05:48:20;14.37;;;9.47;;
20621;SDS011;10470;42.670;23.354;2023-05-10T05:50:55;9.47;;;8.40;;
20621;SDS011;10470;42.670;23.354;2023-05-10T05:53:44;11.37;;;8.83;;
20621;SDS011;10470;42.670;23.354;2023-05-10T05:56:30;12.20;;;9.20;;
20621;SDS011;10470;42.670;23.354;2023-05-10T05:59:15;12.40;;;9.40;;
20621;SDS011;10470;42.670;23.354;2023-05-10T06:02:01;13.03;;;9.13;;
20621;SDS011;10470;42.670;23.354;2023-05-10T06:04:34;10.00;;;8.90;;
20621;SDS011;10470;42.670;23.354;2023-05-10T06:07:19;12.00;;;9.53;;
20621;SDS011;10470;42.670;23.354;2023-05-10T06:10:05;11.87;;;8.47;;
20621;SDS011;10470;42.670;23.354;2023-05-10T06:12:51;12.40;;;9.33;;
20621;SDS011;10470;42.670;23.354;2023-05-10T06:15:37;13.20;;;9.17;;
20621;SDS011;10470;42.670;23.354;2023-05-10T06:18:09;14.10;;;9.90;;
20621;SDS011;10470;42.670;23.354;2023-05-10T06:20:55;10.60;;;8.53;;
20621;SDS011;10470;42.670;23.354;2023-05-10T06:23:40;11.57;;;8.57;;
20621;SDS011;10470;42.670;23.354;2023-05-10T06:26:26;10.03;;;8.83;;
20621;SDS011;10470;42.670;23.354;2023-05-10T06:29:11;11.20;;;8.90;;
20621;SDS011;10470;42.670;23.354;2023-05-10T06:31:48;11.33;;;8.53;;
20621;SDS011;10470;42.670;23.354;2023-05-10T06:34:34;11.23;;;9.13;;
20621;SDS011;10470;42.670;23.354;2023-05-10T06:37:19;10.83;;;8.40;;
20621;SDS011;10470;42.670;23.354;2023-05-10T06:40:05;11.97;;;9.27;;
20621;SDS011;10470;42.670;23.354;2023-05-10T06:42:51;11.93;;;8.60;;
20621;SDS011;10470;42.670;23.354;2023-05-10T06:45:27;10.07;;;8.40;;
20621;SDS011;10470;42.670;23.354;2023-05-10T06:48:12;10.97;;;8.23;;
20621;SDS011;10470;42.670;23.354;2023-05-10T06:50:58;10.47;;;8.20;;
20621;SDS011;10470;42.670;23.354;2023-05-10T06:53:43;13.07;;;8.93;;
20621;SDS011;10470;42.670;23.354;2023-05-10T06:56:29;11.57;;;8.80;;
20621;SDS011;10470;42.670;23.354;2023-05-10T06:59:09;12.60;;;8.93;;
20621;SDS011;10470;42.670;23.354;2023-05-10T07:01:54;9.27;;;7.17;;
20621;SDS011;10470;42.670;23.354;2023-05-10T07:04:40;8.70;;;7.53;;
20621;SDS011;10470;42.670;23.354;2023-05-10T07:07:25;12.10;;;8.70;;
20621;SDS011;10470;42.670;23.354;2023-05-10T07:10:10;11.17;;;7.70;;
20621;SDS011;10470;42.670;23.354;2023-05-10T07:12:52;8.07;;;7.23;;
20621;SDS011;10470;42.670;23.354;2023-05-10T07:15:22;10.53;;;7.17;;
20621;SDS011;10470;42.670;23.354;2023-05-10T07:18:07;9.40;;;7.57;;
20621;SDS011;10470;42.670;23.354;2023-05-10T07:20:53;12.87;;;8.27;;
20621;SDS011;10470;42.670;23.354;2023-05-10T07:23:38;9.93;;;8.00;;
20621;SDS011;10470;42.670;23.354;2023-05-10T07:26:24;12.37;;;8.30;;
20621;SDS011;10470;42.670;23.354;2023-05-10T07:29:10;9.67;;;7.80;;
20621;SDS011;10470;42.670;23.354;2023-05-10T07:31:55;10.43;;;8.67;;
20621;SDS011;10470;42.670;23.354;2023-05-10T07:34:41;9.57;;;8.17;;
20621;SDS011;10470;42.670;23.354;2023-05-10T07:37:27;10.10;;;8.10;;
20621;SDS011;10470;42.670;23.354;2023-05-10T07:40:12;11.20;;;8.53;;
20621;SDS011;10470;42.670;23.354;2023-05-10T07:42:57;13.13;;;8.67;;
20621;SDS011;10470;42.670;23.354;2023-05-10T07:45:44;12.17;;;10.37;;
20621;SDS011;10470;42.670;23.354;2023-05-10T07:48:30;15.00;;;10.27;;
20621;SDS011;10470;42.670;23.354;2023-05-10T07:51:16;13.47;;;10.27;;
20621;SDS011;10470;42.670;23.354;2023-05-10T07:54:01;13.77;;;10.33;;
20621;SDS011;10470;42.670;23.354;2023-05-10T07:56:47;13.60;;;10.87;;
20621;SDS011;10470;42.670;23.354;2023-05-10T07:59:33;12.77;;;10.47;;
20621;SDS011;10470;42.670;23.354;2023-05-10T08:02:18;15.77;;;11.23;;
20621;SDS011;10470;42.670;23.354;2023-05-10T08:05:04;10.87;;;9.30;;
20621;SDS011;10470;42.670;23.354;2023-05-10T08:07:50;12.60;;;9.97;;
20621;SDS011;10470;42.670;23.354;2023-05-10T08:10:36;14.20;;;10.80;;
20621;SDS011;10470;42.670;23.354;2023-05-10T08:13:21;11.03;;;8.90;;
20621;SDS011;10470;42.670;23.354;2023-05-10T08:16:07;14.70;;;10.93;;
20621;SDS011;10470;42.670;23.354;2023-05-10T08:18:52;15.73;;;10.50;;
20621;SDS011;10470;42.670;23.354;2023-05-10T08:21:40;11.07;;;9.30;;
20621;SDS011;10470;42.670;23.354;2023-05-10T08:24:27;11.30;;;9.43;;
20621;SDS011;10470;42.670;23.354;2023-05-10T08:27:12;12.37;;;9.60;;
20621;SDS011;10470;42.670;23.354;2023-05-10T08:29:57;11.00;;;8.80;;
20621;SDS011;10470;42.670;23.354;2023-05-10T08:32:43;10.93;;;9.43;;
20621;SDS011;10470;42.670;23.354;2023-05-10T08:35:28;14.30;;;10.00;;
20621;SDS011;10470;42.670;23.354;2023-05-10T08:38:14;9.67;;;8.67;;
20621;SDS011;10470;42.670;23.354;2023-05-10T08:40:59;10.60;;;8.77;;
20621;SDS011;10470;42.670;23.354;2023-05-10T08:43:47;13.80;;;9.13;;
20621;SDS011;10470;42.670;23.354;2023-05-10T08:46:33;11.50;;;10.30;;
20621;SDS011;10470;42.670;23.354;2023-05-10T08:49:23;11.43;;;9.27;;
20621;SDS011;10470;42.670;23.354;2023-05-10T08:52:12;12.80;;;9.60;;
20621;SDS011;10470;42.670;23.354;2023-05-10T08:55:00;11.10;;;10.00;;
20621;SDS011;10470;42.670;23.354;2023-05-10T08:57:46;10.37;;;9.27;;
20621;SDS011;10470;42.670;23.354;2023-05-10T09:00:32;11.77;;;9.50;;
20621;SDS011;10470;42.670;23.354;2023-05-10T09:03:18;13.57;;;9.87;;
20621;SDS011;10470;42.670;23.354;2023-05-10T09:06:03;13.17;;;10.70;;
20621;SDS011;10470;42.670;23.354;2023-05-10T09:08:50;12.13;;;9.70;;
20621;SDS011;10470;42.670;23.354;2023-05-10T09:11:35;13.57;;;9.93;;
20621;SDS011;10470;42.670;23.354;2023-05-10T09:14:11;13.93;;;9.80;;
20621;SDS011;10470;42.670;23.354;2023-05-10T09:16:57;11.77;;;9.87;;
20621;SDS011;10470;42.670;23.354;2023-05-10T09:19:44;12.30;;;10.33;;
20621;SDS011;10470;42.670;23.354;2023-05-10T09:22:30;11.90;;;10.00;;
20621;SDS011;10470;42.670;23.354;2023-05-10T09:25:16;15.67;;;11.03;;
20621;SDS011;10470;42.670;23.354;2023-05-10T09:28:02;12.80;;;10.57;;
20621;SDS011;10470;42.670;23.354;2023-05-10T09:30:52;12.80;;;10.30;;
20621;SDS011;10470;42.670;23.354;2023-05-10T09:33:45;12.40;;;11.10;;
20621;SDS011;10470;42.670;23.354;2023-05-10T09:36:34;12.47;;;10.27;;
20621;SDS011;10470;42.670;23.354;2023-05-10T09:39:19;15.27;;;11.10;;
20621;SDS011;10470;42.670;23.354;2023-05-10T09:42:06;11.87;;;10.30;;
20621;SDS011;10470;42.670;23.354;2023-05-10T09:44:53;14.70;;;11.40;;
20621;SDS011;10470;42.670;23.354;2023-05-10T09:47:39;14.17;;;11.40;;
20621;SDS011;10470;42.670;23.354;2023-05-10T09:50:24;14.87;;;11.73;;
20621;SDS011;10470;42.670;23.354;2023-05-10T09:53:10;13.47;;;10.13;;
20621;SDS011;10470;42.670;23.354;2023-05-10T09:55:59;13.00;;;9.67;;
20621;SDS011;10470;42.670;23.354;2023-05-10T09:58:44;11.73;;;9.70;;
20621;SDS011;10470;42.670;23.354;2023-05-10T10:01:30;12.10;;;10.20;;
20621;SDS011;10470;42.670;23.354;2023-05-10T10:04:16;9.20;;;8.30;;
20621;SDS011;10470;42.670;23.354;2023-05-10T10:07:03;12.23;;;10.07;;
20621;SDS011;10470;42.670;23.354;2023-05-10T10:09:49;10.97;;;9.80;;
20621;SDS011;10470;42.670;23.354;2023-05-10T10:12:35;12.03;;;10.27;;
20621;SDS011;10470;42.670;23.354;2023-05-10T10:15:21;12.60;;;9.40;;
20621;SDS011;10470;42.670;23.354;2023-05-10T10:18:06;16.63;;;11.43;;
20621;SDS011;10470;42.670;23.354;2023-05-10T10:20:57;12.97;;;10.03;;
20621;SDS011;10470;42.670;23.354;2023-05-10T10:23:43;9.77;;;8.20;;
20621;SDS011;10470;42.670;23.354;2023-05-10T10:26:21;11.87;;;9.50;;
20621;SDS011;10470;42.670;23.354;2023-05-10T10:29:13;10.07;;;9.03;;
20621;SDS011;10470;42.670;23.354;2023-05-10T10:35:43;9.03;;;8.10;;
20621;SDS011;10470;42.670;23.354;2023-05-10T10:38:37;13.87;;;8.67;;
20621;SDS011;10470;42.670;23.354;2023-05-10T10:41:56;9.90;;;8.07;;
20621;SDS011;10470;42.670;23.354;2023-05-10T10:44:42;8.97;;;7.63;;
20621;SDS011;10470;42.670;23.354;2023-05-10T10:47:27;10.43;;;8.10;;
20621;SDS011;10470;42.670;23.354;2023-05-10T10:50:15;10.17;;;8.20;;
20621;SDS011;10470;42.670;23.354;2023-05-10T10:53:10;13.07;;;8.27;;
20621;SDS011;10470;42.670;23.354;2023-05-10T10:56:06;10.47;;;8.10;;
20621;SDS011;10470;42.670;23.354;2023-05-10T10:58:56;10.33;;;7.97;;
20621;SDS011;10470;42.670;23.354;2023-05-10T11:01:35;10.30;;;7.50;;
20621;SDS011;10470;42.670;23.354;2023-05-10T11:04:21;13.80;;;7.53;;
20621;SDS011;10470;42.670;23.354;2023-05-10T11:07:16;8.30;;;6.43;;
20621;SDS011;10470;42.670;23.354;2023-05-10T11:10:05;11.60;;;7.00;;
20621;SDS011;10470;42.670;23.354;2023-05-10T11:15:47;13.53;;;7.87;;
20621;SDS011;10470;42.670;23.354;2023-05-10T11:18:28;8.37;;;7.40;;
20621;SDS011;10470;42.670;23.354;2023-05-10T11:21:09;8.20;;;7.20;;
20621;SDS011;10470;42.670;23.354;2023-05-10T11:23:55;9.50;;;7.30;;
20621;SDS011;10470;42.670;23.354;2023-05-10T11:26:42;9.37;;;7.37;;
20621;SDS011;10470;42.670;23.354;2023-05-10T11:29:28;10.73;;;7.40;;
20621;SDS011;10470;42.670;23.354;2023-05-10T11:32:13;10.13;;;8.20;;
20621;SDS011;10470;42.670;23.354;2023-05-10T11:34:59;10.40;;;7.63;;
20621;SDS011;10470;42.670;23.354;2023-05-10T11:37:47;9.13;;;7.20;;
20621;SDS011;10470;42.670;23.354;2023-05-10T11:40:33;9.00;;;7.10;;
20621;SDS011;10470;42.670;23.354;2023-05-10T11:43:19;9.47;;;7.63;;
20621;SDS011;10470;42.670;23.354;2023-05-10T11:46:12;8.73;;;7.30;;
20621;SDS011;10470;42.670;23.354;2023-05-10T11:48:55;9.73;;;7.17;;
20621;SDS011;10470;42.670;23.354;2023-05-10T11:51:43;10.80;;;7.50;;
20621;SDS011;10470;42.670;23.354;2023-05-10T11:54:29;10.10;;;7.10;;
20621;SDS011;10470;42.670;23.354;2023-05-10T11:57:14;10.70;;;7.33;;
20621;SDS011;10470;42.670;23.354;2023-05-10T12:00:00;11.83;;;7.70;;
20621;SDS011;10470;42.670;23.354;2023-05-10T12:02:45;10.50;;;7.77;;
20621;SDS011;10470;42.670;23.354;2023-05-10T12:05:32;10.33;;;7.80;;
20621;SDS011;10470;42.670;23.354;2023-05-10T12:08:22;11.90;;;8.37;;
20621;SDS011;10470;42.670;23.354;2023-05-10T12:11:09;12.23;;;8.30;;
20621;SDS011;10470;42.670;23.354;2023-05-10T12:13:58;13.63;;;8.73;;
20621;SDS011;10470;42.670;23.354;2023-05-10T12:16:44;8.90;;;7.27;;
20621;SDS011;10470;42.670;23.354;2023-05-10T12:19:36;10.00;;;8.40;;
20621;SDS011;10470;42.670;23.354;2023-05-10T12:22:20;9.47;;;8.50;;
20621;SDS011;10470;42.670;23.354;2023-05-10T12:25:07;11.07;;;8.70;;
20621;SDS011;10470;42.670;23.354;2023-05-10T12:27:54;11.10;;;8.40;;
20621;SDS011;10470;42.670;23.354;2023-05-10T12:30:41;11.93;;;7.97;;
20621;SDS011;10470;42.670;23.354;2023-05-10T12:33:26;10.13;;;8.10;;
20621;SDS011;10470;42.670;23.354;2023-05-10T12:36:12;10.37;;;8.13;;
20621;SDS011;10470;42.670;23.354;2023-05-10T12:38:59;11.57;;;8.27;;
20621;SDS011;10470;42.670;23.354;2023-05-10T12:41:40;10.33;;;8.23;;
20621;SDS011;10470;42.670;23.354;2023-05-10T12:44:25;9.70;;;8.53;;
20621;SDS011;10470;42.670;23.354;2023-05-10T12:47:11;8.87;;;7.93;;
20621;SDS011;10470;42.670;23.354;2023-05-10T12:49:56;10.13;;;7.63;;
20621;SDS011;10470;42.670;23.354;2023-05-10T12:52:42;9.80;;;7.57;;
20621;SDS011;10470;42.670;23.354;2023-05-10T12:55:27;7.60;;;6.67;;
20621;SDS011;10470;42.670;23.354;2023-05-10T12:58:13;8.93;;;7.50;;
20621;SDS011;10470;42.670;23.354;2023-05-10T13:00:59;9.00;;;7.03;;
20621;SDS011;10470;42.670;23.354;2023-05-10T13:03:45;8.73;;;7.33;;
20621;SDS011;10470;42.670;23.354;2023-05-10T13:06:30;9.37;;;7.03;;
20621;SDS011;10470;42.670;23.354;2023-05-10T13:09:16;10.57;;;7.60;;
20621;SDS011;10470;42.670;23.354;2023-05-10T13:12:02;10.43;;;7.30;;
20621;SDS011;10470;42.670;23.354;2023-05-10T13:14:48;7.77;;;6.73;;
20621;SDS011;10470;42.670;23.354;2023-05-10T13:17:33;11.50;;;8.13;;
20621;SDS011;10470;42.670;23.354;2023-05-10T13:20:18;8.90;;;7.07;;
20621;SDS011;10470;42.670;23.354;2023-05-10T13:23:04;9.37;;;7.60;;
20621;SDS011;10470;42.670;23.354;2023-05-10T13:25:50;7.83;;;7.03;;
20621;SDS011;10470;42.670;23.354;2023-05-10T13:28:35;9.93;;;7.07;;
20621;SDS011;10470;42.670;23.354;2023-05-10T13:31:20;9.50;;;7.73;;
20621;SDS011;10470;42.670;23.354;2023-05-10T13:34:06;8.63;;;7.60;;
20621;SDS011;10470;42.670;23.354;2023-05-10T13:36:51;8.70;;;7.00;;
20621;SDS011;10470;42.670;23.354;2023-05-10T13:39:38;13.03;;;7.37;;
20621;SDS011;10470;42.670;23.354;2023-05-10T13:42:24;12.83;;;7.67;;
20621;SDS011;10470;42.670;23.354;2023-05-10T13:45:06;7.77;;;6.97;;
20621;SDS011;10470;42.670;23.354;2023-05-10T13:47:51;9.13;;;6.90;;
20621;SDS011;10470;42.670;23.354;2023-05-10T13:50:37;10.77;;;7.27;;
20621;SDS011;10470;42.670;23.354;2023-05-10T13:53:23;8.33;;;6.73;;
20621;SDS011;10470;42.670;23.354;2023-05-10T13:56:09;11.83;;;6.90;;
20621;SDS011;10470;42.670;23.354;2023-05-10T13:58:45;8.53;;;6.87;;
20621;SDS011;10470;42.670;23.354;2023-05-10T14:01:30;10.67;;;7.00;;
20621;SDS011;10470;42.670;23.354;2023-05-10T14:04:16;12.30;;;7.37;;
20621;SDS011;10470;42.670;23.354;2023-05-10T14:07:01;8.23;;;7.13;;
20621;SDS011;10470;42.670;23.354;2023-05-10T14:09:47;15.97;;;7.77;;
20621;SDS011;10470;42.670;23.354;2023-05-10T14:12:19;10.77;;;7.20;;
20621;SDS011;10470;42.670;23.354;2023-05-10T14:15:05;10.83;;;7.60;;
20621;SDS011;10470;42.670;23.354;2023-05-10T14:17:51;7.77;;;6.30;;
20621;SDS011;10470;42.670;23.354;2023-05-10T14:20:37;9.17;;;7.10;;
20621;SDS011;10470;42.670;23.354;2023-05-10T14:23:22;8.10;;;6.87;;
20621;SDS011;10470;42.670;23.354;2023-05-10T14:26:11;9.93;;;6.80;;
20621;SDS011;10470;42.670;23.354;2023-05-10T14:28:56;8.43;;;7.53;;
20621;SDS011;10470;42.670;23.354;2023-05-10T14:31:41;9.90;;;7.63;;
20621;SDS011;10470;42.670;23.354;2023-05-10T14:34:27;10.17;;;7.30;;
20621;SDS011;10470;42.670;23.354;2023-05-10T14:37:12;9.10;;;6.60;;
20621;SDS011;10470;42.670;23.354;2023-05-10T14:39:58;10.00;;;7.53;;
20621;SDS011;10470;42.670;23.354;2023-05-10T14:42:44;8.03;;;7.23;;
20621;SDS011;10470;42.670;23.354;2023-05-10T14:45:29;8.53;;;7.07;;
20621;SDS011;10470;42.670;23.354;2023-05-10T14:48:15;11.43;;;7.53;;
20621;SDS011;10470;42.670;23.354;2023-05-10T14:51:02;9.57;;;7.67;;
20621;SDS011;10470;42.670;23.354;2023-05-10T14:53:48;15.57;;;8.07;;
20621;SDS011;10470;42.670;23.354;2023-05-10T14:56:36;12.20;;;7.67;;
20621;SDS011;10470;42.670;23.354;2023-05-10T14:59:22;13.93;;;7.10;;
20621;SDS011;10470;42.670;23.354;2023-05-10T15:02:08;11.03;;;7.70;;
20621;SDS011;10470;42.670;23.354;2023-05-10T15:04:54;9.60;;;7.40;;
20621;SDS011;10470;42.670;23.354;2023-05-10T15:07:39;12.23;;;7.57;;
20621;SDS011;10470;42.670;23.354;2023-05-10T15:10:25;13.37;;;8.00;;
20621;SDS011;10470;42.670;23.354;2023-05-10T15:13:10;9.83;;;7.87;;
20621;SDS011;10470;42.670;23.354;2023-05-10T15:15:56;10.87;;;8.30;;
20621;SDS011;10470;42.670;23.354;2023-05-10T15:18:28;11.50;;;8.03;;
20621;SDS011;10470;42.670;23.354;2023-05-10T15:21:13;9.93;;;7.63;;
20621;SDS011;10470;42.670;23.354;2023-05-10T15:23:58;9.47;;;7.50;;
20621;SDS011;10470;42.670;23.354;2023-05-10T15:26:44;9.17;;;7.13;;
20621;SDS011;10470;42.670;23.354;2023-05-10T15:29:29;9.40;;;7.50;;
20621;SDS011;10470;42.670;23.354;2023-05-10T15:32:16;8.93;;;7.30;;
20621;SDS011;10470;42.670;23.354;2023-05-10T15:35:01;9.57;;;7.47;;
20621;SDS011;10470;42.670;23.354;2023-05-10T15:37:47;11.43;;;7.23;;
20621;SDS011;10470;42.670;23.354;2023-05-10T15:40:34;9.37;;;7.00;;
20621;SDS011;10470;42.670;23.354;2023-05-10T15:43:20;11.70;;;7.10;;
20621;SDS011;10470;42.670;23.354;2023-05-10T15:46:05;8.27;;;7.17;;
20621;SDS011;10470;42.670;23.354;2023-05-10T15:48:51;9.70;;;6.97;;
20621;SDS011;10470;42.670;23.354;2023-05-10T15:51:36;8.73;;;6.80;;
20621;SDS011;10470;42.670;23.354;2023-05-10T15:54:14;8.70;;;6.77;;
20621;SDS011;10470;42.670;23.354;2023-05-10T15:56:48;9.87;;;6.73;;
20621;SDS011;10470;42.670;23.354;2023-05-10T15:59:34;7.43;;;6.67;;
20621;SDS011;10470;42.670;23.354;2023-05-10T16:02:19;11.37;;;7.07;;
20621;SDS011;10470;42.670;23.354;2023-05-10T16:05:06;10.67;;;7.47;;
20621;SDS011;10470;42.670;23.354;2023-05-10T16:07:53;9.60;;;7.67;;
20621;SDS011;10470;42.670;23.354;2023-05-10T16:10:39;8.90;;;7.37;;
20621;SDS011;10470;42.670;23.354;2023-05-10T16:13:24;9.93;;;7.30;;
20621;SDS011;10470;42.670;23.354;2023-05-10T16:16:10;10.93;;;7.53;;
20621;SDS011;10470;42.670;23.354;2023-05-10T16:18:56;9.03;;;7.10;;
20621;SDS011;10470;42.670;23.354;2023-05-10T16:21:42;9.37;;;7.60;;
20621;SDS011;10470;42.670;23.354;2023-05-10T16:24:27;9.70;;;7.60;;
20621;SDS011;10470;42.670;23.354;2023-05-10T16:27:13;8.27;;;7.43;;
20621;SDS011;10470;42.670;23.354;2023-05-10T16:29:58;9.00;;;7.30;;
20621;SDS011;10470;42.670;23.354;2023-05-10T16:32:44;10.80;;;8.23;;
20621;SDS011;10470;42.670;23.354;2023-05-10T16:35:12;9.40;;;7.57;;
20621;SDS011;10470;42.670;23.354;2023-05-10T16:37:57;11.90;;;7.97;;
20621;SDS011;10470;42.670;23.354;2023-05-10T16:40:43;12.60;;;7.97;;
20621;SDS011;10470;42.670;23.354;2023-05-10T16:43:28;11.27;;;7.70;;
20621;SDS011;10470;42.670;23.354;2023-05-10T16:46:14;12.97;;;8.90;;
20621;SDS011;10470;42.670;23.354;2023-05-10T16:49:00;11.47;;;8.00;;